createdAt,value
2022-11-05T00:00:40.612Z,97327.41
2022-11-05T00:03:28.950Z,97310.66
2022-11-05T00:06:15.181Z,97327.69
2022-11-05T00:09:00.527Z,97335.22
2022-11-05T00:11:43.045Z,97334.44
2022-11-05T00:14:28.651Z,97336.41
2022-11-05T00:16:58.649Z,97345.63
2022-11-05T00:19:26.762Z,97355.91
2022-11-05T00:22:12.781Z,97354.53
2022-11-05T00:24:58.210Z,97356.38
2022-11-05T00:27:26.699Z,97357.84
2022-11-05T00:29:57.449Z,97361.75
2022-11-05T00:32:27.210Z,97367.59
2022-11-05T00:34:55.230Z,97359.59
2022-11-05T00:39:51.656Z,97362.22
2022-11-05T00:42:37.886Z,97367.06
2022-11-05T00:45:07.494Z,97371.97
2022-11-05T00:47:54.956Z,97370.50
2022-11-05T00:50:23.469Z,97373.25
2022-11-05T00:52:58.934Z,97371.38
2022-11-05T00:55:29.585Z,97376.81
2022-11-05T00:57:58.442Z,97376.47
2022-11-05T01:00:28.670Z,97367.94
2022-11-05T01:03:03.117Z,97363.28
2022-11-05T01:05:32.068Z,97359.28
2022-11-05T01:08:00.669Z,97365.19
2022-11-05T01:10:29.082Z,97369.75
2022-11-05T01:12:57.730Z,97375.72
2022-11-05T01:15:25.894Z,97369.94
2022-11-05T01:17:54.574Z,97373.03
2022-11-05T01:20:24.134Z,97378.81
2022-11-05T01:22:52.509Z,97368.38
2022-11-05T01:25:20.567Z,97374.63
2022-11-05T01:27:49.032Z,97373.22
2022-11-05T01:30:17.416Z,97382.13
2022-11-05T01:32:45.930Z,97375.66
2022-11-05T01:35:15.686Z,97384.97
2022-11-05T01:37:45.851Z,97389.00
2022-11-05T01:40:15.980Z,97396.47
2022-11-05T01:42:44.875Z,97406.91
2022-11-05T01:45:15.560Z,97399.69
2022-11-05T01:47:56.404Z,97407.22
2022-11-05T01:50:35.165Z,97412.72
2022-11-05T01:53:10.242Z,97416.44
2022-11-05T01:55:41.421Z,97404.97
2022-11-05T01:58:11.921Z,97424.56
2022-11-05T02:00:40.773Z,97434.63
2022-11-05T02:03:09.575Z,97426.03
2022-11-05T02:05:37.998Z,97417.47
2022-11-05T02:08:09.695Z,97433.00
2022-11-05T02:10:37.504Z,97436.16
2022-11-05T02:13:05.995Z,97436.56
2022-11-05T02:15:41.554Z,97454.66
2022-11-05T02:18:17.743Z,97458.25
2022-11-05T02:20:52.410Z,97452.56
2022-11-05T02:23:50.208Z,97454.31
2022-11-05T02:26:57.279Z,97443.97
2022-11-05T02:29:55.948Z,97455.94
2022-11-05T02:32:33.740Z,97459.19
2022-11-05T02:35:17.408Z,97458.69
2022-11-05T02:37:47.502Z,97463.88
2022-11-05T02:40:19.297Z,97477.94
2022-11-05T02:42:54.891Z,97474.06
2022-11-05T02:45:35.644Z,97474.06
2022-11-05T02:48:12.326Z,97478.44
2022-11-05T02:50:48.047Z,97478.28
2022-11-05T02:53:20.547Z,97470.00
2022-11-05T02:55:54.315Z,97477.97
2022-11-05T02:58:23.060Z,97484.06
2022-11-05T03:00:53.441Z,97488.63
2022-11-05T03:03:28.987Z,97481.84
2022-11-05T03:06:14.969Z,97487.00
2022-11-05T03:09:11.244Z,97494.28
2022-11-05T03:11:43.584Z,97487.66
2022-11-05T03:14:21.746Z,97499.47
2022-11-05T03:16:54.398Z,97505.13
2022-11-05T03:19:30.527Z,97511.94
2022-11-05T03:22:02.487Z,97510.31
2022-11-05T03:24:33.659Z,97519.03
2022-11-05T03:27:05.531Z,97526.00
2022-11-05T03:29:37.502Z,97519.69
2022-11-05T03:32:07.075Z,97522.91
2022-11-05T03:34:38.570Z,97521.94
2022-11-05T03:37:07.933Z,97509.81
2022-11-05T03:39:39.011Z,97514.97
2022-11-05T03:42:10.316Z,97533.41
2022-11-05T03:44:40.734Z,97532.63
2022-11-05T03:47:12.693Z,97560.75
2022-11-05T03:49:48.895Z,97544.63
2022-11-05T03:52:19.665Z,97548.78
2022-11-05T03:54:47.889Z,97538.91
2022-11-05T03:57:19.820Z,97537.00
2022-11-05T03:59:49.745Z,97543.97
2022-11-05T04:02:19.912Z,97556.91
2022-11-05T04:04:49.746Z,97554.31
2022-11-05T04:07:35.742Z,97566.31
2022-11-05T04:10:21.270Z,97577.81
2022-11-05T04:13:07.767Z,97580.88
2022-11-05T04:15:56.292Z,97587.38
2022-11-05T04:18:23.611Z,97582.47
2022-11-05T04:21:10.453Z,97573.19
2022-11-05T04:23:56.285Z,97575.75
2022-11-05T04:26:24.487Z,97577.84
2022-11-05T04:29:10.370Z,97583.41
2022-11-05T04:31:38.962Z,97580.91
2022-11-05T04:34:07.430Z,97582.84
2022-11-05T04:36:36.979Z,97583.09
2022-11-05T04:39:05.422Z,97574.19
2022-11-05T04:41:33.608Z,97590.78
2022-11-05T04:44:02.445Z,97586.31
2022-11-05T04:46:30.672Z,97598.38
2022-11-05T04:48:59.233Z,97594.09
2022-11-05T04:51:27.987Z,97593.34
2022-11-05T04:53:57.732Z,97590.59
2022-11-05T04:56:26.131Z,97591.59
2022-11-05T04:58:54.695Z,97596.84
2022-11-05T05:01:25.318Z,97598.38
2022-11-05T05:03:55.043Z,97597.66
2022-11-05T05:06:24.129Z,97603.56
2022-11-05T05:08:52.949Z,97604.75
2022-11-05T05:11:23.017Z,97610.50
2022-11-05T05:13:51.658Z,97605.38
2022-11-05T05:16:22.357Z,97609.84
2022-11-05T05:18:51.072Z,97610.44
2022-11-05T05:21:38.484Z,97614.97
2022-11-05T05:24:09.329Z,97618.00
2022-11-05T05:26:39.741Z,97623.75
2022-11-05T05:29:08.551Z,97624.25
2022-11-05T05:31:37.057Z,97626.19
2022-11-05T05:34:06.208Z,97616.69
2022-11-05T05:36:34.736Z,97614.75
2022-11-05T05:39:03.276Z,97623.78
2022-11-05T05:41:31.684Z,97639.25
2022-11-05T05:44:01.496Z,97641.16
2022-11-05T05:46:29.779Z,97648.53
2022-11-05T05:48:58.228Z,97645.66
2022-11-05T05:51:26.300Z,97639.72
2022-11-05T05:53:54.932Z,97641.16
2022-11-05T05:56:23.229Z,97651.50
2022-11-05T05:58:51.863Z,97665.06
2022-11-05T06:01:21.912Z,97657.31
2022-11-05T06:03:50.480Z,97668.47
2022-11-05T06:06:21.220Z,97673.47
2022-11-05T06:08:50.027Z,97676.13
2022-11-05T06:11:18.035Z,97680.91
2022-11-05T06:13:46.450Z,97685.94
2022-11-05T06:16:14.539Z,97683.56
2022-11-05T06:18:44.554Z,97681.69
2022-11-05T06:21:14.115Z,97693.75
2022-11-05T06:23:44.441Z,97706.19
2022-11-05T06:26:14.455Z,97707.25
2022-11-05T06:28:43.409Z,97710.72
2022-11-05T06:31:12.431Z,97729.00
2022-11-05T06:33:41.919Z,97726.84
2022-11-05T06:36:15.386Z,97726.84
2022-11-05T06:38:43.772Z,97722.63
2022-11-05T06:41:11.788Z,97737.19
2022-11-05T06:43:40.477Z,97745.84
2022-11-05T06:46:08.786Z,97744.97
2022-11-05T06:48:37.511Z,97759.91
2022-11-05T06:51:06.551Z,97770.59
2022-11-05T06:53:36.853Z,97776.63
2022-11-05T06:56:05.871Z,97770.75
2022-11-05T06:58:35.056Z,97785.66
2022-11-05T07:01:04.093Z,97786.06
2022-11-05T07:03:32.567Z,97785.72
2022-11-05T07:06:01.255Z,97788.56
2022-11-05T07:08:32.072Z,97783.81
2022-11-05T07:11:01.827Z,97786.59
2022-11-05T07:13:30.271Z,97802.19
2022-11-05T07:15:58.674Z,97789.56
2022-11-05T07:18:27.056Z,97799.63
2022-11-05T07:20:55.356Z,97794.44
2022-11-05T07:23:23.713Z,97807.31
2022-11-05T07:25:51.879Z,97809.94
2022-11-05T07:28:21.737Z,97805.56
2022-11-05T07:30:49.935Z,97804.94
2022-11-05T07:33:18.404Z,97813.94
2022-11-05T07:35:47.024Z,97807.81
2022-11-05T07:38:15.362Z,97814.63
2022-11-05T07:40:43.590Z,97822.41
2022-11-05T07:43:12.414Z,97819.38
2022-11-05T07:45:42.391Z,97820.09
2022-11-05T07:48:11.098Z,97823.28
2022-11-05T07:50:39.345Z,97834.59
2022-11-05T07:53:09.600Z,97831.53
2022-11-05T07:55:38.381Z,97830.66
2022-11-05T07:58:07.028Z,97823.69
2022-11-05T08:00:35.443Z,97835.16
2022-11-05T08:03:08.437Z,97829.38
2022-11-05T08:05:38.560Z,97826.91
2022-11-05T08:08:08.120Z,97825.44
2022-11-05T08:10:36.776Z,97834.69
2022-11-05T08:13:05.778Z,97821.13
2022-11-05T08:15:34.457Z,97835.28
2022-11-05T08:18:03.505Z,97834.19
2022-11-05T08:20:33.473Z,97830.81
2022-11-05T08:23:01.941Z,97833.28
2022-11-05T08:25:30.709Z,97839.41
2022-11-05T08:28:00.253Z,97846.56
2022-11-05T08:30:28.961Z,97852.84
2022-11-05T08:32:58.769Z,97855.09
2022-11-05T08:35:27.304Z,97858.25
2022-11-05T08:37:59.423Z,97866.34
2022-11-05T08:40:28.098Z,97873.16
2022-11-05T08:42:58.188Z,97866.13
2022-11-05T08:45:26.423Z,97877.66
2022-11-05T08:47:59.985Z,97867.16
2022-11-05T08:50:28.427Z,97883.56
2022-11-05T08:52:58.283Z,97884.63
2022-11-05T08:55:26.728Z,97885.13
2022-11-05T08:57:58.877Z,97879.78
2022-11-05T09:00:27.585Z,97884.25
2022-11-05T09:02:56.057Z,97888.03
2022-11-05T09:05:24.133Z,97881.28
2022-11-05T09:07:57.873Z,97884.22
2022-11-05T09:10:30.525Z,97877.38
2022-11-05T09:12:59.549Z,97886.50
2022-11-05T09:15:31.929Z,97873.94
2022-11-05T09:18:05.676Z,97876.72
2022-11-05T09:20:33.989Z,97883.22
2022-11-05T09:23:02.637Z,97891.44
2022-11-05T09:25:32.237Z,97889.75
2022-11-05T09:28:08.442Z,97891.44
2022-11-05T09:30:36.510Z,97888.38
2022-11-05T09:33:05.665Z,97894.13
2022-11-05T09:35:33.690Z,97904.25
2022-11-05T09:38:02.392Z,97897.75
2022-11-05T09:40:39.125Z,97904.75
2022-11-05T09:43:08.077Z,97903.03
2022-11-05T09:45:37.321Z,97899.97
2022-11-05T09:48:09.200Z,97909.41
2022-11-05T09:50:41.297Z,97906.69
2022-11-05T09:53:12.411Z,97914.31
2022-11-05T09:55:44.710Z,97915.47
2022-11-05T09:58:17.299Z,97915.28
2022-11-05T10:00:48.678Z,97916.09
2022-11-05T10:03:20.661Z,97927.44
2022-11-05T10:05:49.989Z,97926.31
2022-11-05T10:08:24.978Z,97933.94
2022-11-05T10:10:56.324Z,97927.47
2022-11-05T10:13:26.945Z,97928.41
2022-11-05T10:16:00.973Z,97929.25
2022-11-05T10:18:33.312Z,97931.50
2022-11-05T10:21:01.757Z,97929.22
2022-11-05T10:23:30.408Z,97932.28
2022-11-05T10:26:03.197Z,97938.00
2022-11-05T10:28:34.141Z,97944.63
2022-11-05T10:31:05.707Z,97948.06
2022-11-05T10:33:36.457Z,97954.19
2022-11-05T10:36:06.879Z,97944.41
2022-11-05T10:38:35.470Z,97948.00
2022-11-05T10:41:16.128Z,97950.13
2022-11-05T10:43:48.601Z,97937.75
2022-11-05T10:46:26.481Z,97937.97
2022-11-05T10:49:04.825Z,97940.72
2022-11-05T10:51:33.620Z,97936.41
2022-11-05T10:54:06.131Z,97943.16
2022-11-05T10:56:38.241Z,97939.09
2022-11-05T10:59:12.396Z,97958.06
2022-11-05T11:01:42.968Z,97948.59
2022-11-05T11:04:18.371Z,97957.13
2022-11-05T11:06:51.550Z,97954.19
2022-11-05T11:09:23.632Z,97967.81
2022-11-05T11:12:05.600Z,97974.31
2022-11-05T11:14:35.351Z,97971.06
2022-11-05T11:17:27.093Z,97965.56
2022-11-05T11:20:20.614Z,97960.69
2022-11-05T11:23:03.344Z,97958.72
2022-11-05T11:25:34.548Z,97962.66
2022-11-05T11:28:05.295Z,97975.53
2022-11-05T11:30:35.342Z,97974.09
2022-11-05T11:33:07.396Z,97974.81
2022-11-05T11:35:38.381Z,97976.75
2022-11-05T11:38:07.306Z,97972.69
2022-11-05T11:40:37.944Z,97983.22
2022-11-05T11:43:16.734Z,97978.81
2022-11-05T11:45:47.662Z,97973.28
2022-11-05T11:48:18.714Z,97982.38
2022-11-05T11:50:47.835Z,97989.25
2022-11-05T11:53:28.039Z,97989.25
2022-11-05T11:56:02.873Z,97985.97
2022-11-05T11:58:41.101Z,97987.91
2022-11-05T12:01:35.442Z,97993.31
2022-11-05T12:04:13.866Z,97989.03
2022-11-05T12:06:48.367Z,97985.47
2022-11-05T12:09:20.490Z,97984.19
2022-11-05T12:11:55.366Z,97994.75
2022-11-05T12:14:33.013Z,97998.34
2022-11-05T12:17:24.476Z,98007.75
2022-11-05T12:20:24.737Z,98001.28
2022-11-05T12:23:17.649Z,98004.16
2022-11-05T12:25:51.748Z,98007.56
2022-11-05T12:28:34.000Z,98011.16
2022-11-05T12:31:16.347Z,98014.38
2022-11-05T12:33:55.144Z,98015.88
2022-11-05T12:36:34.833Z,98017.19
2022-11-05T12:39:30.697Z,98017.03
2022-11-05T12:42:03.010Z,98023.97
2022-11-05T12:44:44.946Z,98019.09
2022-11-05T12:47:24.172Z,98036.59
2022-11-05T12:50:12.186Z,98039.50
2022-11-05T12:52:57.716Z,98034.47
2022-11-05T12:55:27.487Z,98020.50
2022-11-05T12:57:58.537Z,98018.41
2022-11-05T13:00:28.305Z,98033.44
2022-11-05T13:03:03.062Z,98024.41
2022-11-05T13:05:36.270Z,98028.94
2022-11-05T13:08:08.092Z,98043.53
2022-11-05T13:10:41.536Z,98063.75
2022-11-05T13:13:17.044Z,98052.41
2022-11-05T13:15:50.939Z,98054.81
2022-11-05T13:18:27.195Z,98062.50
2022-11-05T13:20:56.942Z,98060.69
2022-11-05T13:23:32.423Z,98072.47
2022-11-05T13:26:04.586Z,98069.47
2022-11-05T13:28:36.849Z,98079.00
2022-11-05T13:31:09.332Z,98080.44
2022-11-05T13:33:41.776Z,98084.53
2022-11-05T13:36:29.399Z,98096.78
2022-11-05T13:39:00.747Z,98093.72
2022-11-05T13:41:36.189Z,98087.53
2022-11-05T13:44:42.820Z,98096.03
2022-11-05T13:47:25.715Z,98092.59
2022-11-05T13:50:49.126Z,98094.69
2022-11-05T13:53:39.698Z,98085.53
2022-11-05T13:56:21.193Z,98087.41
2022-11-05T13:59:25.588Z,98093.97
2022-11-05T14:01:59.807Z,98093.91
2022-11-05T14:04:32.633Z,98093.91
2022-11-05T14:07:11.530Z,98099.91
2022-11-05T14:09:41.494Z,98097.66
2022-11-05T14:12:19.813Z,98101.03
2022-11-05T14:14:58.502Z,98108.19
2022-11-05T14:17:30.500Z,98121.41
2022-11-05T14:20:27.761Z,98134.72
2022-11-05T14:23:37.907Z,98141.53
2022-11-05T14:26:19.207Z,98146.38
2022-11-05T14:29:03.811Z,98143.34
2022-11-05T14:32:07.253Z,98157.75
2022-11-05T14:34:35.501Z,98166.63
2022-11-05T14:37:15.636Z,98159.94
2022-11-05T14:39:45.853Z,98160.75
2022-11-05T14:42:18.418Z,98167.13
2022-11-05T14:45:03.555Z,98167.41
2022-11-05T14:47:34.334Z,98165.38
2022-11-05T14:50:09.489Z,98171.91
2022-11-05T14:52:38.738Z,98176.25
2022-11-05T14:55:21.426Z,98177.31
2022-11-05T14:58:21.411Z,98175.25
2022-11-05T15:00:50.310Z,98184.31
2022-11-05T15:03:59.229Z,98186.09
2022-11-05T15:06:30.072Z,98190.50
2022-11-05T15:09:20.990Z,98194.16
2022-11-05T15:12:02.527Z,98199.69
2022-11-05T15:14:34.141Z,98201.88
2022-11-05T15:17:04.325Z,98208.28
2022-11-05T15:19:34.543Z,98211.91
2022-11-05T15:22:05.831Z,98217.47
2022-11-05T15:24:35.056Z,98215.28
2022-11-05T15:27:07.783Z,98219.09
2022-11-05T15:29:36.336Z,98218.66
2022-11-05T15:32:07.089Z,98215.47
2022-11-05T15:34:36.555Z,98222.53
2022-11-05T15:37:22.322Z,98229.09
2022-11-05T15:39:52.160Z,98226.78
2022-11-05T15:42:23.910Z,98234.22
2022-11-05T15:44:53.092Z,98245.75
2022-11-05T15:47:24.050Z,98242.09
2022-11-05T15:49:55.013Z,98243.50
2022-11-05T15:52:24.435Z,98244.63
2022-11-05T15:55:15.402Z,98238.34
2022-11-05T15:57:50.677Z,98253.09
2022-11-05T16:00:22.287Z,98246.94
2022-11-05T16:02:56.335Z,98260.19
2022-11-05T16:05:25.865Z,98244.94
2022-11-05T16:07:54.227Z,98247.47
2022-11-05T16:10:24.797Z,98244.53
2022-11-05T16:12:54.217Z,98247.59
2022-11-05T16:15:25.208Z,98257.78
2022-11-05T16:17:57.533Z,98251.56
2022-11-05T16:20:30.227Z,98254.38
2022-11-05T16:23:00.344Z,98262.25
2022-11-05T16:25:32.929Z,98257.13
2022-11-05T16:28:03.284Z,98264.69
2022-11-05T16:30:31.794Z,98269.16
2022-11-05T16:33:07.681Z,98273.88
2022-11-05T16:35:40.881Z,98275.50
2022-11-05T16:38:11.661Z,98285.63
2022-11-05T16:40:40.105Z,98278.06
2022-11-05T16:43:20.048Z,98286.19
2022-11-05T16:45:49.210Z,98289.25
2022-11-05T16:48:18.024Z,98300.25
2022-11-05T16:50:46.979Z,98299.53
2022-11-05T16:53:15.303Z,98310.16
2022-11-05T16:55:45.420Z,98310.53
2022-11-05T16:58:20.687Z,98303.44
2022-11-05T17:00:50.010Z,98314.22
2022-11-05T17:03:18.428Z,98322.78
2022-11-05T17:05:47.260Z,98309.94
2022-11-05T17:08:15.624Z,98318.06
2022-11-05T17:10:44.142Z,98326.50
2022-11-05T17:13:14.640Z,98318.59
2022-11-05T17:15:47.050Z,98315.44
2022-11-05T17:18:18.556Z,98321.41
2022-11-05T17:20:49.201Z,98313.19
2022-11-05T17:23:19.679Z,98311.16
2022-11-05T17:25:49.221Z,98312.59
2022-11-05T17:28:17.793Z,98313.88
2022-11-05T17:30:52.285Z,98310.53
2022-11-05T17:33:21.596Z,98320.91
2022-11-05T17:35:50.313Z,98324.25
2022-11-05T17:38:18.884Z,98320.41
2022-11-05T17:40:47.425Z,98329.16
2022-11-05T17:43:16.387Z,98325.47
2022-11-05T17:45:45.919Z,98327.53
2022-11-05T17:48:15.490Z,98325.94
2022-11-05T17:50:45.010Z,98335.28
2022-11-05T17:53:14.037Z,98340.66
2022-11-05T17:55:43.171Z,98346.56
2022-11-05T17:58:11.712Z,98348.09
2022-11-05T18:00:41.383Z,98346.66
2022-11-05T18:03:11.226Z,98347.22
2022-11-05T18:05:41.608Z,98345.78
2022-11-05T18:08:10.284Z,98348.59
2022-11-05T18:10:39.337Z,98355.13
2022-11-05T18:13:07.662Z,98347.56
2022-11-05T18:15:40.986Z,98344.72
2022-11-05T18:18:09.712Z,98354.00
2022-11-05T18:20:38.276Z,98362.63
2022-11-05T18:23:07.654Z,98367.09
2022-11-05T18:25:36.133Z,98371.75
2022-11-05T18:28:04.590Z,98362.84
2022-11-05T18:30:33.066Z,98358.09
2022-11-05T18:33:01.546Z,98361.06
2022-11-05T18:35:29.926Z,98357.81
2022-11-05T18:37:57.946Z,98367.69
2022-11-05T18:40:27.754Z,98364.63
2022-11-05T18:42:55.849Z,98370.69
2022-11-05T18:45:29.377Z,98370.22
2022-11-05T18:47:57.897Z,98377.88
2022-11-05T18:50:26.393Z,98378.84
2022-11-05T18:52:54.542Z,98385.16
2022-11-05T18:55:23.039Z,98386.56
2022-11-05T18:57:52.655Z,98394.81
2022-11-05T19:00:21.430Z,98388.09
2022-11-05T19:02:49.807Z,98387.09
2022-11-05T19:05:33.964Z,98384.66
2022-11-05T19:08:02.081Z,98393.50
2022-11-05T19:10:30.459Z,98397.38
2022-11-05T19:12:59.913Z,98403.78
2022-11-05T19:15:28.411Z,98406.56
2022-11-05T19:17:56.499Z,98406.34
2022-11-05T19:20:25.215Z,98411.94
2022-11-05T19:22:53.343Z,98416.13
2022-11-05T19:25:21.802Z,98414.59
2022-11-05T19:27:50.030Z,98419.09
2022-11-05T19:30:19.992Z,98422.63
2022-11-05T19:32:48.272Z,98421.44
2022-11-05T19:35:16.630Z,98425.41
2022-11-05T19:37:44.896Z,98428.16
2022-11-05T19:40:13.638Z,98441.34
2022-11-05T19:42:42.254Z,98439.66
2022-11-05T19:45:38.119Z,98443.78
2022-11-05T19:48:01.281Z,98448.72
2022-11-05T19:50:29.660Z,98448.00
2022-11-05T19:52:57.962Z,98455.66
2022-11-05T19:55:26.406Z,98449.81
2022-11-05T19:57:55.005Z,98451.47
2022-11-05T20:00:23.473Z,98453.06
2022-11-05T20:02:51.780Z,98462.13
2022-11-05T20:05:22.390Z,98471.22
2022-11-05T20:07:53.089Z,98476.09
2022-11-05T20:10:22.111Z,98469.78
2022-11-05T20:12:50.564Z,98477.00
2022-11-05T20:15:19.804Z,98482.72
2022-11-05T20:17:51.755Z,98492.84
2022-11-05T20:20:21.737Z,98485.56
2022-11-05T20:22:49.910Z,98490.56
2022-11-05T20:25:18.315Z,98482.78
2022-11-05T20:27:46.581Z,98486.19
2022-11-05T20:30:15.181Z,98487.22
2022-11-05T20:32:43.368Z,98491.16
2022-11-05T20:35:11.734Z,98486.78
2022-11-05T20:37:41.291Z,98491.00
2022-11-05T20:40:10.910Z,98490.97
2022-11-05T20:42:39.052Z,98487.97
2022-11-05T20:45:08.238Z,98500.69
2022-11-05T20:47:36.485Z,98506.72
2022-11-05T20:50:06.229Z,98510.88
2022-11-05T20:52:34.846Z,98510.94
2022-11-05T20:55:05.332Z,98512.34
2022-11-05T20:57:33.701Z,98523.19
2022-11-05T21:00:02.258Z,98520.44
2022-11-05T21:02:30.491Z,98527.03
2022-11-05T21:04:59.221Z,98526.38
2022-11-05T21:07:27.423Z,98528.22
2022-11-05T21:09:55.897Z,98528.00
2022-11-05T21:12:25.502Z,98522.91
2022-11-05T21:14:53.824Z,98526.91
2022-11-05T21:17:22.144Z,98519.50
2022-11-05T21:19:50.474Z,98520.38
2022-11-05T21:22:18.655Z,98515.72
2022-11-05T21:24:47.133Z,98511.63
2022-11-05T21:27:15.179Z,98516.88
2022-11-05T21:29:45.003Z,98520.72
2022-11-05T21:32:13.130Z,98521.13
2022-11-05T21:34:41.510Z,98528.03
2022-11-05T21:37:09.644Z,98527.78
2022-11-05T21:39:38.037Z,98527.59
2022-11-05T21:42:06.191Z,98522.94
2022-11-05T21:44:34.699Z,98521.59
2022-11-05T21:47:04.994Z,98515.72
2022-11-05T21:49:35.365Z,98532.72
2022-11-05T21:52:20.683Z,98521.66
2022-11-05T21:55:06.501Z,98533.16
2022-11-05T21:57:52.333Z,98522.94
2022-11-05T22:00:21.107Z,98518.84
2022-11-05T22:02:50.888Z,98521.72
2022-11-05T22:05:19.404Z,98523.69
2022-11-05T22:07:47.431Z,98523.22
2022-11-05T22:10:17.244Z,98520.47
2022-11-05T22:12:45.714Z,98522.66
2022-11-05T22:15:14.494Z,98526.44
2022-11-05T22:17:46.441Z,98540.03
2022-11-05T22:20:17.915Z,98536.19
2022-11-05T22:22:46.287Z,98534.47
2022-11-05T22:25:15.572Z,98537.38
2022-11-05T22:27:44.317Z,98537.28
2022-11-05T22:30:14.314Z,98536.09
2022-11-05T22:32:42.432Z,98538.63
2022-11-05T22:35:11.281Z,98536.94
2022-11-05T22:37:40.903Z,98542.25
2022-11-05T22:40:10.146Z,98538.19
2022-11-05T22:42:38.472Z,98538.63
2022-11-05T22:45:07.823Z,98536.84
2022-11-05T22:47:35.911Z,98533.53
2022-11-05T22:50:04.812Z,98531.25
2022-11-05T22:52:33.328Z,98532.75
2022-11-05T22:55:05.249Z,98538.59
2022-11-05T22:57:33.731Z,98528.59
2022-11-05T23:00:02.218Z,98534.44
2022-11-05T23:02:33.235Z,98526.94
2022-11-05T23:05:01.721Z,98532.94
2022-11-05T23:07:47.385Z,98534.28
2022-11-05T23:10:34.571Z,98533.63
2022-11-05T23:13:04.429Z,98542.88
2022-11-05T23:15:50.023Z,98536.84
2022-11-05T23:18:35.547Z,98545.13
2022-11-05T23:21:23.163Z,98539.88
2022-11-05T23:24:06.857Z,98539.53
2022-11-05T23:26:54.044Z,98540.41
2022-11-05T23:29:23.580Z,98543.53
2022-11-05T23:32:09.781Z,98545.84
2022-11-05T23:34:37.891Z,98544.59
2022-11-05T23:37:24.080Z,98557.16
2022-11-05T23:39:52.434Z,98551.19
2022-11-05T23:42:39.975Z,98548.72
2022-11-05T23:45:26.694Z,98548.31
2022-11-05T23:48:12.866Z,98558.88
2022-11-05T23:50:41.421Z,98553.13
2022-11-05T23:53:10.078Z,98548.94
2022-11-05T23:55:38.486Z,98547.94
2022-11-05T23:58:08.659Z,98558.59
